MMPG

Piedras Negras International Airport

Mexico
TAF MMPG 161709Z 1618/1718 13010KT P6SM SCT040 FM170400 13005KT P6SM SCT250 FM171600 13010KT P6SM SCT030 SCT250
Issued Valid From Valid To
Aug-16 @ 17:09 UTC
(3 hours ago)
Aug-16 @ 18:00 UTC
(2 hours ago)
Aug-17 @ 18:00 UTC
(in 22 hours)
Aug-16 @ 18:00 to Aug-17 @ 04:00
TAF MMPG 161709Z 1618/1718 13010KT P6SM SCT040
Wind Visibility Clouds
130° at 10 knots Greater than 6 miles
  • Scattered at 4,000' AGL
From Aug-17 @ 04:00 to Aug-17 @ 16:00
FM170400 13005KT P6SM SCT250
Wind Visibility Clouds
130° at 5 knots Greater than 6 miles
  • Scattered at 25,000' AGL
From Aug-17 @ 16:00 to Aug-17 @ 18:00
FM171600 13010KT P6SM SCT030 SCT250
Wind Visibility Clouds
130° at 10 knots Greater than 6 miles
  • Scattered at 3,000' AGL
  • Scattered at 25,000' AGL
TAF MMPG 161709Z 1618/1718 13010KT P6SM SCT040 FM170400 13005KT P6SM SCT250 FM171600 13010KT P6SM SCT030 SCT250
Issued Aug-16 @ 17:09 UTC
(3 hours ago)
Valid From Aug-16 @ 18:00 UTC
(2 hours ago)
Valid To Aug-17 @ 18:00 UTC
(in 22 hours)
Aug-16 @ 18:00 - Aug-17 @ 04:00
Wind Visibility
130° at 10 knots Greater than 6 miles
Clouds
  • Scattered at 4,000' AGL
From Aug-17 @ 04:00 - Aug-17 @ 16:00
Wind Visibility
130° at 5 knots Greater than 6 miles
Clouds
  • Scattered at 25,000' AGL
From Aug-17 @ 16:00 - Aug-17 @ 18:00
Wind Visibility
130° at 10 knots Greater than 6 miles
Clouds
  • Scattered at 3,000' AGL
  • Scattered at 25,000' AGL